Latest Weather Observations for Maria Island

IDT60801

Issued at 9:02 am EST Sunday 24 July 2016 (issued every 30 minutes, with the page automatically refreshed every 10 minutes)

About weather observations | Map of weather stations | Latest weather observations for TAS | Other Formats
Station Details ID: 092124 Name: MARIA ISLAND (POINT LESUEUR) Lat: -42.66 Lon: 148.02 Height: 28.0 m
Data from the previous 72 hours. | See also: Recent months at Maria Island
Date/Time
EST
Temp
°C
App
Temp
°C
Dew
Point
°C
Rel
Hum
%
Delta-T
°C
Wind Press
QNH
hPa
Press
MSL
hPa
Rain since
9am
mm
Dir  Spd
km/h
Gust
km/h
Spd
kts
Gust
kts
24/09:00am 5.6 - - - - WNW 9 15 5 8 1005.4 1005.4 0.2
24/08:30am 5.7 - - - - NW 19 24 10 13 1005.2 1005.2 0.2
24/08:00am 5.2 - - - - WNW 19 22 10 12 1005.0 1005.0 0.2
24/07:30am 5.0 - - - - NW 22 26 12 14 1004.7 1004.7 0.2
24/07:00am 5.1 - - - - NW 15 20 8 11 1004.7 1004.7 0.2
24/06:30am 4.6 - - - - NW 17 20 9 11 1004.5 1004.5 0.2
24/06:00am 4.5 - - - - WNW 19 22 10 12 1004.2 1004.2 0.2
24/05:30am 4.8 - - - - WNW 24 30 13 16 1004.1 1004.1 0.2
24/05:00am 4.9 - - - - WNW 26 33 14 18 1003.8 1003.8 0.2
24/04:30am 4.9 - - - - WNW 24 32 13 17 1003.8 1003.8 0.2
24/04:00am 4.5 - - - - WNW 24 28 13 15 1003.6 1003.6 0.2
24/03:30am 4.8 - - - - WNW 22 28 12 15 1003.4 1003.4 0.2
24/03:00am 4.7 - - - - WNW 17 22 9 12 1003.6 1003.6 0.2
24/02:30am 4.4 - - - - WNW 17 22 9 12 1003.9 1003.9 0.2
24/02:00am 4.7 - - - - WNW 28 33 15 18 1003.6 1003.6 0.2
24/01:30am 4.5 - - - - WNW 24 32 13 17 1003.5 1003.5 0.2
24/01:00am 4.4 - - - - WNW 30 37 16 20 1003.3 1003.3 0.2
24/12:30am 4.4 - - - - W 22 32 12 17 1003.1 1003.1 0.2
24/12:00am 4.0 - - - - WNW 19 24 10 13 1003.2 1003.2 0.2
 
Date/Time
EST
Temp
°C
App
Temp
°C
Dew
Point
°C
Rel
Hum
%
Delta-T
°C
Wind Press
QNH
hPa
Press
MSL
hPa
Rain since
9am
mm
Dir  Spd
km/h
Gust
km/h
Spd
kts
Gust
kts
23/11:30pm 4.0 - - - - W 17 22 9 12 1002.9 1002.9 0.2
23/11:00pm 4.0 - - - - W 17 24 9 13 1002.8 1002.8 0.2
23/10:30pm 4.5 - - - - W 26 43 14 23 1002.4 1002.4 0.2
23/10:00pm 4.9 - - - - WSW 33 46 18 25 1001.5 1001.5 0.2
23/09:40pm 5.0 - - - - WSW 37 56 20 30 1001.0 1001.0 0.2
23/09:30pm 4.8 - - - - WSW 41 56 22 30 1000.7 1000.7 0.2
23/09:15pm 5.3 - - - - WSW 46 67 25 36 1000.5 1000.5 0.2
23/09:00pm 5.4 - - - - WSW 46 57 25 31 1000.2 1000.2 0.2
23/08:30pm 4.9 - - - - WSW 44 69 24 37 999.5 999.5 0.2
23/08:28pm 4.9 - - - - WSW 44 69 24 37 999.4 999.4 0.2
23/08:24pm 4.9 - - - - WSW 41 69 22 37 998.9 999.0 0.2
23/08:00pm 4.5 - - - - WSW 30 54 16 29 998.8 998.9 0.2
23/07:30pm 4.1 - - - - SW 41 67 22 36 997.7 997.8 0.2
23/07:23pm 3.1 - - - - SW 56 72 30 39 998.0 998.1 0.2
23/07:22pm 3.8 - - - - SW 56 72 30 39 998.0 998.1 0.2
23/07:00pm 4.4 - - - - WSW 48 74 26 40 997.0 997.1 0.2
23/06:30pm 4.6 - - - - WSW 50 70 27 38 996.3 996.4 0.0
23/06:07pm 4.4 - - - - WSW 43 63 23 34 995.7 995.8 0.0
23/06:00pm 3.8 - - - - WSW 46 80 25 43 995.9 996.0 0.0
23/05:57pm 3.9 - - - - WSW 52 80 28 43 995.8 995.9 0.0
23/05:51pm 4.0 - - - - WSW 46 80 25 43 995.7 995.8 0.0
23/05:47pm 4.6 - - - - WSW 44 61 24 33 995.9 996.0 0.0
23/05:46pm 4.7 - - - - WSW 44 61 24 33 995.9 996.0 0.0
23/05:35pm 5.2 - - - - WSW 59 78 32 42 994.9 995.0 0.0
23/05:30pm 5.4 - - - - WSW 61 80 33 43 994.6 994.7 0.0
23/05:21pm 5.0 - - - - WSW 56 76 30 41 993.9 994.0 0.0
23/05:10pm 5.0 - - - - WSW 46 69 25 37 994.2 994.3 0.0
23/05:00pm 5.0 - - - - WSW 43 57 23 31 994.3 994.4 0.0
23/04:30pm 5.1 - - - - WSW 46 57 25 31 993.7 993.8 0.0
23/04:19pm 5.0 - - - - W 37 61 20 33 993.4 993.5 0.0
23/04:00pm 5.5 - - - - WSW 39 50 21 27 992.8 992.9 0.0
23/03:30pm 6.0 - - - - WSW 35 48 19 26 992.4 992.5 0.0
23/03:00pm 5.5 - - - - W 37 46 20 25 991.1 991.2 0.0
23/02:30pm 6.2 - - - - WSW 39 52 21 28 990.5 990.5 0.0
23/02:00pm 5.6 - - - - SW 43 59 23 32 990.0 990.0 0.0
23/01:36pm 6.5 - - - - WSW 28 50 15 27 989.5 989.5 0.0
23/01:30pm 6.6 - - - - WSW 28 37 15 20 989.5 989.5 0.0
23/01:00pm 5.8 - - - - W 33 50 18 27 989.2 989.2 0.0
23/12:48pm 5.9 - - - - WSW 46 61 25 33 989.1 989.1 0.0
23/12:30pm 5.8 - - - - W 50 76 27 41 988.2 988.2 0.0
23/12:29pm 5.8 - - - - W 48 76 26 41 988.2 988.2 0.0
23/12:06pm 6.2 - - - - W 32 50 17 27 988.5 988.5 0.0
23/12:00pm 5.7 - - - - WSW 37 50 20 27 988.4 988.4 0.0
23/11:30am 5.6 - - - - W 43 52 23 28 987.6 987.6 0.0
23/11:00am 6.0 - - - - WSW 48 59 26 32 987.5 987.5 0.0
23/10:30am 5.5 - - - - W 48 65 26 35 986.8 986.8 0.0
23/10:25am 5.4 - - - - W 43 65 23 35 987.0 987.0 0.0
23/10:00am 5.7 - - - - W 56 69 30 37 985.8 985.8 0.0
23/09:43am 5.9 - - - - W 48 67 26 36 985.6 985.6 0.0
23/09:33am 6.0 - - - - W 35 56 19 30 986.0 986.0 0.0
23/09:30am 5.8 - - - - W 32 44 17 24 986.1 986.1 0.0
23/09:00am 5.8 - - - - W 39 50 21 27 985.5 985.5 0.4
23/08:30am 5.7 - - - - W 33 46 18 25 985.5 985.5 0.4
23/08:22am 5.9 - - - - WSW 28 46 15 25 985.4 985.4 0.4
23/08:00am 5.9 - - - - W 32 46 17 25 984.9 984.9 0.4
23/07:30am 6.0 - - - - WSW 32 44 17 24 984.7 984.7 0.4
23/07:00am 5.9 - - - - WSW 35 44 19 24 984.3 984.3 0.4
23/06:37am 6.5 - - - - W 37 61 20 33 983.7 983.7 0.4
23/06:30am 6.9 - - - - W 30 43 16 23 983.7 983.7 0.4
23/06:00am 6.9 - - - - W 17 32 9 17 983.4 983.4 0.4
23/05:30am 6.9 - - - - NW 15 22 8 12 982.8 982.8 0.4
23/05:00am 7.1 - - - - WNW 15 22 8 12 982.6 982.6 0.4
23/04:30am 7.1 - - - - NNW 24 30 13 16 982.6 982.6 0.4
23/04:00am 7.5 - - - - NNW 22 30 12 16 982.4 982.4 0.4
23/03:30am 7.2 - - - - NNW 20 28 11 15 982.7 982.7 0.4
23/03:00am 7.5 - - - - NNW 19 26 10 14 983.1 983.1 0.4
23/02:30am 7.6 - - - - NNW 19 28 10 15 983.4 983.4 0.4
23/02:00am 7.8 - - - - NNE 26 35 14 19 983.5 983.5 0.4
23/01:30am 7.5 - - - - N 15 26 8 14 983.8 983.8 0.4
23/01:00am 7.5 - - - - NNW 19 33 10 18 984.3 984.3 0.4
23/12:30am 6.6 - - - - NW 20 24 11 13 985.1 985.1 0.4
23/12:00am 7.3 - - - - NW 30 35 16 19 985.0 985.0 0.4
 
Date/Time
EST
Temp
°C
App
Temp
°C
Dew
Point
°C
Rel
Hum
%
Delta-T
°C
Wind Press
QNH
hPa
Press
MSL
hPa
Rain since
9am
mm
Dir  Spd
km/h
Gust
km/h
Spd
kts
Gust
kts
22/11:30pm 7.4 - - - - NW 19 26 10 14 985.6 985.6 0.4
22/11:00pm 7.4 - - - - NW 17 26 9 14 985.9 985.9 0.4
22/10:30pm 7.5 - - - - WNW 24 32 13 17 985.8 985.8 0.4
22/10:00pm 7.6 - - - - WNW 22 35 12 19 985.5 985.5 0.4
22/09:53pm 8.0 - - - - W 22 35 12 19 985.4 985.4 0.4
22/09:32pm 8.5 - - - - WSW 43 61 23 33 984.7 984.7 0.4
22/09:30pm 8.4 - - - - WSW 46 61 25 33 984.7 984.7 0.4
22/09:00pm 8.8 - - - - WSW 48 59 26 32 984.2 984.2 0.4
22/08:30pm 8.7 - - - - W 33 43 18 23 984.9 984.9 0.4
22/08:00pm 8.8 - - - - W 30 35 16 19 984.7 984.7 0.4
22/07:30pm 8.6 - - - - W 28 39 15 21 984.2 984.2 0.4
22/07:00pm 8.7 - - - - W 33 46 18 25 983.5 983.5 0.4
22/06:30pm 8.4 - - - - W 46 61 25 33 982.5 982.5 0.4
22/06:00pm 9.9 - - - - W 54 76 29 41 981.8 981.8 0.2
22/05:33pm 9.4 - - - - WNW 56 74 30 40 980.6 980.6 0.2
22/05:30pm 9.4 - - - - WNW 57 74 31 40 980.4 980.4 0.2
22/05:23pm 9.9 - - - - WNW 56 72 30 39 980.2 980.2 0.2
22/05:03pm 11.3 - - - - W 39 57 21 31 980.3 980.3 0.2
22/05:00pm 11.3 - - - - W 41 57 22 31 980.1 980.1 0.2
22/04:30pm 12.1 - - - - WNW 44 67 24 36 978.8 978.8 0.2
22/04:28pm 12.1 - - - - WNW 43 67 23 36 978.7 978.7 0.2
22/04:00pm 12.3 - - - - WNW 44 61 24 33 978.3 978.3 0.2
22/03:42pm 12.2 - - - - WNW 35 54 19 29 978.3 978.3 0.2
22/03:30pm 12.4 - - - - WNW 33 52 18 28 979.0 979.0 0.0
22/03:27pm 12.6 - - - - WNW 32 39 17 21 978.9 978.9 0.0
22/03:00pm 12.9 - - - - NW 37 43 20 23 978.2 978.2 0.0
22/02:30pm 13.1 - - - - NW 39 44 21 24 978.8 978.8 0.0
22/02:00pm 13.7 - - - - NNW 37 44 20 24 978.1 978.1 0.0
22/01:30pm 14.6 - - - - NNW 44 54 24 29 978.4 978.4 0.0
22/01:00pm 14.3 - - - - NNW 44 52 24 28 978.6 978.6 0.0
22/12:30pm 14.6 - - - - NNW 41 46 22 25 979.8 979.8 0.0
22/12:00pm 15.3 - - - - NW 32 39 17 21 980.8 980.8 0.0
22/11:30am 14.8 - - - - NW 28 32 15 17 982.0 982.0 0.0
22/11:00am 14.4 - - - - NW 39 50 21 27 982.6 982.6 0.0
22/10:30am 14.5 - - - - WNW 43 57 23 31 983.4 983.4 0.0
22/10:23am 14.1 - - - - NW 35 48 19 26 983.6 983.6 0.0
22/10:00am 14.6 - - - - NNW 32 39 17 21 983.7 983.7 0.0
22/09:30am 14.0 - - - - NNW 30 37 16 20 983.9 983.9 0.0
22/09:00am 13.6 - - - - NNW 26 33 14 18 984.2 984.2 1.6
22/08:30am 13.2 - - - - NNW 33 39 18 21 984.3 984.3 1.6
22/08:00am 13.6 - - - - N 43 54 23 29 984.3 984.3 1.4
22/07:59am 13.5 - - - - N 43 54 23 29 984.3 984.3 1.4
22/07:30am 12.4 - - - - NNE 52 63 28 34 984.0 984.0 1.4
22/07:00am 12.7 - - - - NNE 54 65 29 35 984.0 984.0 1.4
22/06:30am 12.5 - - - - N 46 59 25 32 985.1 985.1 1.4
22/06:00am 13.1 - - - - N 56 67 30 36 985.0 985.0 1.0
22/05:30am 12.6 - - - - NNE 52 67 28 36 986.2 986.2 1.0
22/05:00am 12.3 - - - - NNE 54 67 29 36 987.9 987.9 1.0
22/04:30am 13.1 - - - - N 56 65 30 35 988.2 988.2 0.8
22/04:27am 13.0 - - - - N 54 65 29 35 988.6 988.6 0.8
22/04:00am 12.7 - - - - N 50 57 27 31 990.6 990.6 0.8
22/03:54am 12.6 - - - - N 46 57 25 31 990.5 990.5 0.8
22/03:30am 12.1 - - - - N 43 48 23 26 992.6 992.7 0.6
22/03:00am 12.2 - - - - N 43 52 23 28 993.5 993.6 0.0
22/02:30am 12.1 - - - - N 48 57 26 31 993.9 994.0 0.0
22/02:00am 11.9 - - - - N 39 46 21 25 995.3 995.4 0.0
22/01:30am 12.0 - - - - NNE 37 44 20 24 996.2 996.3 0.0
22/01:00am 12.2 - - - - N 26 33 14 18 997.6 997.7 0.0
22/12:30am 12.1 - - - - N 30 35 16 19 999.2 999.2 0.0
22/12:00am 11.8 - - - - N 39 44 21 24 1000.1 1000.1 0.0
 
Date/Time
EST
Temp
°C
App
Temp
°C
Dew
Point
°C
Rel
Hum
%
Delta-T
°C
Wind Press
QNH
hPa
Press
MSL
hPa
Rain since
9am
mm
Dir  Spd
km/h
Gust
km/h
Spd
kts
Gust
kts
21/11:30pm 11.6 - - - - N 39 48 21 26 1000.7 1000.7 0.0
21/11:00pm 11.5 - - - - N 39 43 21 23 1001.1 1001.1 0.0
21/10:30pm 11.2 - - - - N 35 39 19 21 1002.2 1002.2 0.0
21/10:00pm 11.0 - - - - N 35 43 19 23 1002.6 1002.6 0.0
21/09:30pm 11.1 - - - - N 33 39 18 21 1003.4 1003.4 0.0
21/09:00pm 11.0 - - - - N 33 41 18 22 1003.4 1003.4 0.0
21/08:30pm 11.1 - - - - N 33 41 18 22 1004.1 1004.1 0.0
21/08:00pm 11.2 - - - - N 37 48 20 26 1004.7 1004.7 0.0
21/07:30pm 11.1 - - - - N 37 43 20 23 1005.0 1005.0 0.0
21/07:00pm 10.9 - - - - N 35 43 19 23 1005.6 1005.6 0.0
21/06:30pm 10.9 - - - - N 35 43 19 23 1005.9 1005.9 0.0
21/06:00pm 11.2 - - - - N 35 43 19 23 1006.5 1006.5 0.0
21/05:30pm 11.2 - - - - N 37 41 20 22 1006.6 1006.6 0.0
21/05:00pm 11.3 - - - - N 32 39 17 21 1007.2 1007.2 0.0
21/04:30pm 11.5 - - - - NNW 37 46 20 25 1007.6 1007.6 0.0
21/04:00pm 11.4 - - - - N 30 37 16 20 1007.8 1007.8 0.0
21/03:30pm 11.7 - - - - N 30 37 16 20 1008.3 1008.3 0.0
21/03:00pm 11.6 - - - - NNW 24 30 13 16 1008.8 1008.8 0.0
21/02:30pm 12.3 - - - - NNW 28 32 15 17 1009.2 1009.2 0.0
21/02:00pm 12.3 - - - - NNW 30 33 16 18 1009.9 1009.9 0.0
21/01:30pm 12.0 - - - - N 26 32 14 17 1010.1 1010.1 0.0
21/01:00pm 12.0 - - - - N 22 28 12 15 1010.6 1010.6 0.0
21/12:30pm 11.9 - - - - NNW 19 22 10 12 1011.6 1011.6 0.0
21/12:00pm 11.5 - - - - N 20 24 11 13 1012.2 1012.2 0.0
21/11:30am 10.7 - - - - N 20 28 11 15 1013.0 1013.0 0.0
21/11:00am 10.2 - - - - N 13 17 7 9 1014.0 1014.0 0.0
21/10:30am 9.8 - - - - N 11 15 6 8 1014.5 1014.5 0.0
21/10:00am 9.6 - - - - N 15 17 8 9 1014.6 1014.6 0.0
21/09:30am 8.7 - - - - NNW 17 20 9 11 1015.1 1015.1 0.0

Other Formats:

Comma delimited format used in spreadsheet applications
http://www.bom.gov.au/fwo/IDT60801/IDT60801.95988.axf

JavaScript Object Notation format (JSON) in row-major order
http://www.bom.gov.au/fwo/IDT60801/IDT60801.95988.json